sensor_id;sensor_type;location;lat;lon;timestamp;temperature;humidity
23591;DHT22;11973;52.098;7.582;2022-10-30T00:00:15;15.20;99.90
23591;DHT22;11973;52.098;7.582;2022-10-30T00:02:40;15.20;99.90
23591;DHT22;11973;52.098;7.582;2022-10-30T00:05:07;15.20;99.90
23591;DHT22;11973;52.098;7.582;2022-10-30T00:07:33;15.10;99.90
23591;DHT22;11973;52.098;7.582;2022-10-30T00:09:58;15.10;99.90
23591;DHT22;11973;52.098;7.582;2022-10-30T00:12:24;15.10;99.90
23591;DHT22;11973;52.098;7.582;2022-10-30T00:14:50;15.10;99.90
23591;DHT22;11973;52.098;7.582;2022-10-30T00:17:16;15.10;99.90
23591;DHT22;11973;52.098;7.582;2022-10-30T00:19:41;15.00;99.90
23591;DHT22;11973;52.098;7.582;2022-10-30T00:22:07;15.00;99.90
23591;DHT22;11973;52.098;7.582;2022-10-30T00:24:33;15.00;99.90
23591;DHT22;11973;52.098;7.582;2022-10-30T00:26:59;15.00;99.90
23591;DHT22;11973;52.098;7.582;2022-10-30T00:29:24;14.90;99.90
23591;DHT22;11973;52.098;7.582;2022-10-30T00:31:51;14.90;99.90
23591;DHT22;11973;52.098;7.582;2022-10-30T00:34:17;14.90;99.90
23591;DHT22;11973;52.098;7.582;2022-10-30T00:36:43;14.90;99.90
23591;DHT22;11973;52.098;7.582;2022-10-30T00:39:09;14.80;99.90
23591;DHT22;11973;52.098;7.582;2022-10-30T00:41:37;14.80;99.90
23591;DHT22;11973;52.098;7.582;2022-10-30T00:47:29;14.80;99.90
23591;DHT22;11973;52.098;7.582;2022-10-30T00:52:33;14.70;99.90
23591;DHT22;11973;52.098;7.582;2022-10-30T00:55:09;14.70;99.90
23591;DHT22;11973;52.098;7.582;2022-10-30T00:57:37;14.70;99.90
23591;DHT22;11973;52.098;7.582;2022-10-30T01:00:05;14.70;99.90
23591;DHT22;11973;52.098;7.582;2022-10-30T01:02:31;14.70;99.90
23591;DHT22;11973;52.098;7.582;2022-10-30T01:04:57;14.70;99.90
23591;DHT22;11973;52.098;7.582;2022-10-30T01:07:24;14.60;99.90
23591;DHT22;11973;52.098;7.582;2022-10-30T01:09:49;14.60;99.90
23591;DHT22;11973;52.098;7.582;2022-10-30T01:12:15;14.60;99.90
23591;DHT22;11973;52.098;7.582;2022-10-30T01:14:53;14.60;99.90
23591;DHT22;11973;52.098;7.582;2022-10-30T01:17:34;14.50;99.90
23591;DHT22;11973;52.098;7.582;2022-10-30T01:20:28;14.50;99.90
23591;DHT22;11973;52.098;7.582;2022-10-30T01:25:51;14.50;99.90
23591;DHT22;11973;52.098;7.582;2022-10-30T01:36:40;14.40;99.90
23591;DHT22;11973;52.098;7.582;2022-10-30T01:39:31;14.30;99.90
23591;DHT22;11973;52.098;7.582;2022-10-30T01:41:58;14.30;99.90
23591;DHT22;11973;52.098;7.582;2022-10-30T01:44:30;14.30;99.90
23591;DHT22;11973;52.098;7.582;2022-10-30T01:52:54;14.20;99.90
23591;DHT22;11973;52.098;7.582;2022-10-30T01:58:04;14.20;99.90
23591;DHT22;11973;52.098;7.582;2022-10-30T02:00:30;14.20;99.90
23591;DHT22;11973;52.098;7.582;2022-10-30T02:02:56;14.20;99.90
23591;DHT22;11973;52.098;7.582;2022-10-30T02:05:36;14.20;99.90
23591;DHT22;11973;52.098;7.582;2022-10-30T02:08:03;14.20;99.90
23591;DHT22;11973;52.098;7.582;2022-10-30T02:10:30;14.20;99.90
23591;DHT22;11973;52.098;7.582;2022-10-30T02:12:58;14.20;99.90
23591;DHT22;11973;52.098;7.582;2022-10-30T02:15:23;14.20;99.90
23591;DHT22;11973;52.098;7.582;2022-10-30T02:17:49;14.10;99.90
23591;DHT22;11973;52.098;7.582;2022-10-30T02:20:20;14.10;99.90
23591;DHT22;11973;52.098;7.582;2022-10-30T02:22:46;14.10;99.90
23591;DHT22;11973;52.098;7.582;2022-10-30T02:25:13;14.20;99.90
23591;DHT22;11973;52.098;7.582;2022-10-30T02:27:39;14.10;99.90
23591;DHT22;11973;52.098;7.582;2022-10-30T02:30:09;14.10;99.90
23591;DHT22;11973;52.098;7.582;2022-10-30T02:32:35;14.00;99.90
23591;DHT22;11973;52.098;7.582;2022-10-30T02:35:01;14.10;99.90
23591;DHT22;11973;52.098;7.582;2022-10-30T02:37:26;14.00;99.90
23591;DHT22;11973;52.098;7.582;2022-10-30T02:39:52;14.00;99.90
23591;DHT22;11973;52.098;7.582;2022-10-30T02:42:18;14.00;99.90
23591;DHT22;11973;52.098;7.582;2022-10-30T02:44:44;13.90;99.90
23591;DHT22;11973;52.098;7.582;2022-10-30T02:47:09;13.90;99.90
23591;DHT22;11973;52.098;7.582;2022-10-30T02:49:36;13.90;99.90
23591;DHT22;11973;52.098;7.582;2022-10-30T02:52:02;13.80;99.90
23591;DHT22;11973;52.098;7.582;2022-10-30T02:54:27;13.90;99.90
23591;DHT22;11973;52.098;7.582;2022-10-30T02:56:53;13.80;99.90
23591;DHT22;11973;52.098;7.582;2022-10-30T02:59:20;13.80;99.90
23591;DHT22;11973;52.098;7.582;2022-10-30T03:01:47;13.70;99.90
23591;DHT22;11973;52.098;7.582;2022-10-30T03:04:13;13.70;99.90
23591;DHT22;11973;52.098;7.582;2022-10-30T03:06:39;13.60;99.90
23591;DHT22;11973;52.098;7.582;2022-10-30T03:09:04;13.60;99.90
23591;DHT22;11973;52.098;7.582;2022-10-30T03:11:33;13.60;99.90
23591;DHT22;11973;52.098;7.582;2022-10-30T03:13:58;13.50;99.90
23591;DHT22;11973;52.098;7.582;2022-10-30T03:16:26;13.50;99.90
23591;DHT22;11973;52.098;7.582;2022-10-30T03:18:54;13.40;99.90
23591;DHT22;11973;52.098;7.582;2022-10-30T03:21:22;13.40;99.90
23591;DHT22;11973;52.098;7.582;2022-10-30T03:23:48;13.30;99.90
23591;DHT22;11973;52.098;7.582;2022-10-30T03:26:15;13.30;99.90
23591;DHT22;11973;52.098;7.582;2022-10-30T03:28:55;13.30;99.90
23591;DHT22;11973;52.098;7.582;2022-10-30T03:31:20;13.30;99.90
23591;DHT22;11973;52.098;7.582;2022-10-30T03:33:54;13.20;99.90
23591;DHT22;11973;52.098;7.582;2022-10-30T03:36:20;13.20;99.90
23591;DHT22;11973;52.098;7.582;2022-10-30T03:38:46;13.10;99.90
23591;DHT22;11973;52.098;7.582;2022-10-30T03:41:16;13.10;99.90
23591;DHT22;11973;52.098;7.582;2022-10-30T03:43:43;13.10;99.90
23591;DHT22;11973;52.098;7.582;2022-10-30T03:46:09;13.00;99.90
23591;DHT22;11973;52.098;7.582;2022-10-30T03:48:36;13.10;99.90
23591;DHT22;11973;52.098;7.582;2022-10-30T03:51:02;13.00;99.90
23591;DHT22;11973;52.098;7.582;2022-10-30T03:53:28;13.00;99.90
23591;DHT22;11973;52.098;7.582;2022-10-30T03:55:59;12.90;99.90
23591;DHT22;11973;52.098;7.582;2022-10-30T03:58:26;12.90;99.90
23591;DHT22;11973;52.098;7.582;2022-10-30T04:01:05;12.90;99.90
23591;DHT22;11973;52.098;7.582;2022-10-30T04:03:34;12.80;99.90
23591;DHT22;11973;52.098;7.582;2022-10-30T04:06:00;12.80;99.90
23591;DHT22;11973;52.098;7.582;2022-10-30T04:08:26;12.80;99.90
23591;DHT22;11973;52.098;7.582;2022-10-30T04:10:52;12.80;99.90
23591;DHT22;11973;52.098;7.582;2022-10-30T04:13:17;12.80;99.90
23591;DHT22;11973;52.098;7.582;2022-10-30T04:15:48;12.80;99.90
23591;DHT22;11973;52.098;7.582;2022-10-30T04:18:15;12.80;99.90
23591;DHT22;11973;52.098;7.582;2022-10-30T04:20:41;12.80;99.90
23591;DHT22;11973;52.098;7.582;2022-10-30T04:23:12;12.80;99.90
23591;DHT22;11973;52.098;7.582;2022-10-30T04:25:38;12.80;99.90
23591;DHT22;11973;52.098;7.582;2022-10-30T04:28:04;12.80;99.90
23591;DHT22;11973;52.098;7.582;2022-10-30T04:30:30;12.80;99.90
23591;DHT22;11973;52.098;7.582;2022-10-30T04:33:03;12.80;99.90
23591;DHT22;11973;52.098;7.582;2022-10-30T04:35:32;12.80;99.90
23591;DHT22;11973;52.098;7.582;2022-10-30T04:38:07;12.80;99.90
23591;DHT22;11973;52.098;7.582;2022-10-30T04:40:37;12.80;99.90
23591;DHT22;11973;52.098;7.582;2022-10-30T04:43:05;12.80;99.90
23591;DHT22;11973;52.098;7.582;2022-10-30T04:45:32;12.80;99.90
23591;DHT22;11973;52.098;7.582;2022-10-30T04:48:07;12.80;99.90
23591;DHT22;11973;52.098;7.582;2022-10-30T04:50:34;12.80;99.90
23591;DHT22;11973;52.098;7.582;2022-10-30T04:53:05;12.70;99.90
23591;DHT22;11973;52.098;7.582;2022-10-30T04:55:32;12.70;99.90
23591;DHT22;11973;52.098;7.582;2022-10-30T04:57:58;12.70;99.90
23591;DHT22;11973;52.098;7.582;2022-10-30T05:00:25;12.60;99.90
23591;DHT22;11973;52.098;7.582;2022-10-30T05:03:02;12.60;99.90
23591;DHT22;11973;52.098;7.582;2022-10-30T05:05:30;12.60;99.90
23591;DHT22;11973;52.098;7.582;2022-10-30T05:07:56;12.50;99.90
23591;DHT22;11973;52.098;7.582;2022-10-30T05:10:22;12.50;99.90
23591;DHT22;11973;52.098;7.582;2022-10-30T05:12:49;12.50;99.90
23591;DHT22;11973;52.098;7.582;2022-10-30T05:15:15;12.40;99.90
23591;DHT22;11973;52.098;7.582;2022-10-30T06:17:05;11.60;99.90
23591;DHT22;11973;52.098;7.582;2022-10-30T06:19:31;11.70;99.90
23591;DHT22;11973;52.098;7.582;2022-10-30T06:22:09;11.60;99.90
23591;DHT22;11973;52.098;7.582;2022-10-30T06:24:47;11.60;99.90
23591;DHT22;11973;52.098;7.582;2022-10-30T06:27:39;11.60;99.90
23591;DHT22;11973;52.098;7.582;2022-10-30T06:30:04;11.50;99.90
23591;DHT22;11973;52.098;7.582;2022-10-30T06:32:30;11.50;99.90
23591;DHT22;11973;52.098;7.582;2022-10-30T06:34:56;11.50;99.90
23591;DHT22;11973;52.098;7.582;2022-10-30T06:37:23;11.50;99.90
23591;DHT22;11973;52.098;7.582;2022-10-30T06:39:49;11.50;99.90
23591;DHT22;11973;52.098;7.582;2022-10-30T06:42:49;11.50;99.90
23591;DHT22;11973;52.098;7.582;2022-10-30T06:45:26;11.50;99.90
23591;DHT22;11973;52.098;7.582;2022-10-30T06:47:52;11.40;99.90
23591;DHT22;11973;52.098;7.582;2022-10-30T06:50:19;11.50;99.90
23591;DHT22;11973;52.098;7.582;2022-10-30T06:52:45;11.50;99.90
23591;DHT22;11973;52.098;7.582;2022-10-30T06:55:11;11.40;99.90
23591;DHT22;11973;52.098;7.582;2022-10-30T06:58:06;11.50;99.90
23591;DHT22;11973;52.098;7.582;2022-10-30T07:00:50;11.50;99.90
23591;DHT22;11973;52.098;7.582;2022-10-30T07:03:25;11.50;99.90
23591;DHT22;11973;52.098;7.582;2022-10-30T07:05:52;11.50;99.90
23591;DHT22;11973;52.098;7.582;2022-10-30T07:08:18;11.50;99.90
23591;DHT22;11973;52.098;7.582;2022-10-30T07:10:43;11.50;99.90
23591;DHT22;11973;52.098;7.582;2022-10-30T07:13:28;11.50;99.90
23591;DHT22;11973;52.098;7.582;2022-10-30T07:16:05;11.50;99.90
23591;DHT22;11973;52.098;7.582;2022-10-30T07:18:35;11.60;99.90
23591;DHT22;11973;52.098;7.582;2022-10-30T07:21:01;11.70;99.90
23591;DHT22;11973;52.098;7.582;2022-10-30T07:23:28;11.60;99.90
23591;DHT22;11973;52.098;7.582;2022-10-30T07:26:05;11.60;99.90
23591;DHT22;11973;52.098;7.582;2022-10-30T07:28:35;11.70;99.90
23591;DHT22;11973;52.098;7.582;2022-10-30T07:31:17;11.70;99.90
23591;DHT22;11973;52.098;7.582;2022-10-30T07:33:51;11.70;99.90
23591;DHT22;11973;52.098;7.582;2022-10-30T07:36:37;11.80;99.90
23591;DHT22;11973;52.098;7.582;2022-10-30T07:39:18;11.80;99.90
23591;DHT22;11973;52.098;7.582;2022-10-30T07:42:04;11.90;99.90
23591;DHT22;11973;52.098;7.582;2022-10-30T07:44:41;11.90;99.90
23591;DHT22;11973;52.098;7.582;2022-10-30T07:47:21;12.00;99.90
23591;DHT22;11973;52.098;7.582;2022-10-30T07:50:13;12.00;99.90
23591;DHT22;11973;52.098;7.582;2022-10-30T07:52:39;12.10;99.90
23591;DHT22;11973;52.098;7.582;2022-10-30T07:55:06;12.10;99.90
23591;DHT22;11973;52.098;7.582;2022-10-30T07:57:47;12.20;99.90
23591;DHT22;11973;52.098;7.582;2022-10-30T08:00:32;12.20;99.90
23591;DHT22;11973;52.098;7.582;2022-10-30T08:03:08;12.30;99.90
23591;DHT22;11973;52.098;7.582;2022-10-30T08:05:49;12.30;99.90
23591;DHT22;11973;52.098;7.582;2022-10-30T08:08:21;12.40;99.90
23591;DHT22;11973;52.098;7.582;2022-10-30T08:10:55;12.40;99.90
23591;DHT22;11973;52.098;7.582;2022-10-30T08:13:20;12.50;99.90
23591;DHT22;11973;52.098;7.582;2022-10-30T08:15:46;12.60;99.90
23591;DHT22;11973;52.098;7.582;2022-10-30T08:18:13;12.60;99.90
23591;DHT22;11973;52.098;7.582;2022-10-30T08:20:41;12.70;99.90
23591;DHT22;11973;52.098;7.582;2022-10-30T08:23:07;12.70;99.90
23591;DHT22;11973;52.098;7.582;2022-10-30T08:25:33;12.80;99.90
23591;DHT22;11973;52.098;7.582;2022-10-30T08:28:04;12.90;99.90
23591;DHT22;11973;52.098;7.582;2022-10-30T08:30:34;12.90;99.90
23591;DHT22;11973;52.098;7.582;2022-10-30T08:33:04;13.00;99.90
23591;DHT22;11973;52.098;7.582;2022-10-30T08:35:36;13.00;99.90
23591;DHT22;11973;52.098;7.582;2022-10-30T08:38:02;13.10;99.90
23591;DHT22;11973;52.098;7.582;2022-10-30T08:40:28;13.20;99.90
23591;DHT22;11973;52.098;7.582;2022-10-30T08:43:05;13.30;99.90
23591;DHT22;11973;52.098;7.582;2022-10-30T08:45:32;13.30;99.90
23591;DHT22;11973;52.098;7.582;2022-10-30T08:48:16;13.40;99.90
23591;DHT22;11973;52.098;7.582;2022-10-30T08:50:43;13.50;99.90
23591;DHT22;11973;52.098;7.582;2022-10-30T08:53:12;13.60;99.90
23591;DHT22;11973;52.098;7.582;2022-10-30T08:55:40;13.60;99.90
23591;DHT22;11973;52.098;7.582;2022-10-30T08:58:12;13.70;99.90
23591;DHT22;11973;52.098;7.582;2022-10-30T09:00:38;13.80;99.90
23591;DHT22;11973;52.098;7.582;2022-10-30T09:03:09;13.90;99.90
23591;DHT22;11973;52.098;7.582;2022-10-30T09:05:38;13.90;99.90
23591;DHT22;11973;52.098;7.582;2022-10-30T09:08:15;14.00;99.90
23591;DHT22;11973;52.098;7.582;2022-10-30T09:11:13;14.10;99.90
23591;DHT22;11973;52.098;7.582;2022-10-30T09:13:39;14.20;99.90
23591;DHT22;11973;52.098;7.582;2022-10-30T09:16:06;14.30;99.90
23591;DHT22;11973;52.098;7.582;2022-10-30T09:18:34;14.40;99.90
23591;DHT22;11973;52.098;7.582;2022-10-30T09:21:00;14.50;99.90
23591;DHT22;11973;52.098;7.582;2022-10-30T09:23:26;14.60;99.90
23591;DHT22;11973;52.098;7.582;2022-10-30T09:26:03;14.60;99.90
23591;DHT22;11973;52.098;7.582;2022-10-30T09:28:52;14.70;99.90
23591;DHT22;11973;52.098;7.582;2022-10-30T09:31:53;14.90;99.90
23591;DHT22;11973;52.098;7.582;2022-10-30T09:34:19;15.00;99.90
23591;DHT22;11973;52.098;7.582;2022-10-30T09:36:59;15.10;99.90
23591;DHT22;11973;52.098;7.582;2022-10-30T09:39:25;15.20;99.90
23591;DHT22;11973;52.098;7.582;2022-10-30T09:47:50;15.50;99.90
23591;DHT22;11973;52.098;7.582;2022-10-30T09:50:24;15.60;99.90
23591;DHT22;11973;52.098;7.582;2022-10-30T09:59:19;15.80;99.90
23591;DHT22;11973;52.098;7.582;2022-10-30T10:02:21;15.90;99.90
23591;DHT22;11973;52.098;7.582;2022-10-30T10:04:48;16.00;99.90
23591;DHT22;11973;52.098;7.582;2022-10-30T10:07:48;16.10;99.90
23591;DHT22;11973;52.098;7.582;2022-10-30T10:10:45;16.20;99.90
23591;DHT22;11973;52.098;7.582;2022-10-30T10:16:03;16.30;99.90
23591;DHT22;11973;52.098;7.582;2022-10-30T10:18:38;16.40;99.90
23591;DHT22;11973;52.098;7.582;2022-10-30T10:21:17;16.50;99.90
23591;DHT22;11973;52.098;7.582;2022-10-30T10:23:59;16.50;99.90
23591;DHT22;11973;52.098;7.582;2022-10-30T10:26:27;16.60;99.90
23591;DHT22;11973;52.098;7.582;2022-10-30T10:45:53;17.00;99.90
23591;DHT22;11973;52.098;7.582;2022-10-30T10:51:21;17.10;99.90
23591;DHT22;11973;52.098;7.582;2022-10-30T10:56:29;17.20;99.90
23591;DHT22;11973;52.098;7.582;2022-10-30T10:59:02;17.30;99.90
23591;DHT22;11973;52.098;7.582;2022-10-30T11:01:37;17.30;99.90
23591;DHT22;11973;52.098;7.582;2022-10-30T11:06:45;17.50;99.90
23591;DHT22;11973;52.098;7.582;2022-10-30T11:09:20;17.50;99.90
23591;DHT22;11973;52.098;7.582;2022-10-30T11:11:48;17.60;99.90
23591;DHT22;11973;52.098;7.582;2022-10-30T11:14:17;17.60;99.90
23591;DHT22;11973;52.098;7.582;2022-10-30T11:17:09;17.70;99.90
23591;DHT22;11973;52.098;7.582;2022-10-30T11:19:37;17.70;99.90
23591;DHT22;11973;52.098;7.582;2022-10-30T11:22:24;17.80;99.90
23591;DHT22;11973;52.098;7.582;2022-10-30T11:24:51;17.80;99.90
23591;DHT22;11973;52.098;7.582;2022-10-30T11:29:53;18.00;99.90
23591;DHT22;11973;52.098;7.582;2022-10-30T11:32:23;18.00;99.90
23591;DHT22;11973;52.098;7.582;2022-10-30T11:37:41;18.10;99.90
23591;DHT22;11973;52.098;7.582;2022-10-30T11:42:58;18.20;99.90
23591;DHT22;11973;52.098;7.582;2022-10-30T11:45:25;18.20;99.90
23591;DHT22;11973;52.098;7.582;2022-10-30T11:47:53;18.30;99.90
23591;DHT22;11973;52.098;7.582;2022-10-30T11:50:22;18.30;99.90
23591;DHT22;11973;52.098;7.582;2022-10-30T11:52:56;18.30;99.90
23591;DHT22;11973;52.098;7.582;2022-10-30T11:55:38;18.40;99.90
23591;DHT22;11973;52.098;7.582;2022-10-30T11:58:06;18.50;99.90
23591;DHT22;11973;52.098;7.582;2022-10-30T12:00:37;18.50;99.90
23591;DHT22;11973;52.098;7.582;2022-10-30T12:03:29;18.50;99.90
23591;DHT22;11973;52.098;7.582;2022-10-30T12:06:25;18.60;99.90
23591;DHT22;11973;52.098;7.582;2022-10-30T12:11:36;18.70;99.90
23591;DHT22;11973;52.098;7.582;2022-10-30T12:14:03;18.80;99.90
23591;DHT22;11973;52.098;7.582;2022-10-30T12:16:29;18.80;99.90
23591;DHT22;11973;52.098;7.582;2022-10-30T12:19:00;18.80;99.90
23591;DHT22;11973;52.098;7.582;2022-10-30T12:21:28;18.80;99.90
23591;DHT22;11973;52.098;7.582;2022-10-30T12:23:57;18.90;99.90
23591;DHT22;11973;52.098;7.582;2022-10-30T12:26:27;18.90;99.90
23591;DHT22;11973;52.098;7.582;2022-10-30T12:29:10;19.00;99.90
23591;DHT22;11973;52.098;7.582;2022-10-30T12:31:51;19.00;99.90
23591;DHT22;11973;52.098;7.582;2022-10-30T12:37:27;19.10;99.90
23591;DHT22;11973;52.098;7.582;2022-10-30T12:40:15;19.10;99.90
23591;DHT22;11973;52.098;7.582;2022-10-30T12:42:47;19.20;99.90
23591;DHT22;11973;52.098;7.582;2022-10-30T12:45:20;19.20;99.90
23591;DHT22;11973;52.098;7.582;2022-10-30T12:48:00;19.20;99.90
23591;DHT22;11973;52.098;7.582;2022-10-30T12:54:06;19.30;99.90
23591;DHT22;11973;52.098;7.582;2022-10-30T12:56:46;19.30;99.90
23591;DHT22;11973;52.098;7.582;2022-10-30T13:10:53;19.60;99.90
23591;DHT22;11973;52.098;7.582;2022-10-30T13:13:24;19.60;99.90
23591;DHT22;11973;52.098;7.582;2022-10-30T13:15:54;19.60;99.90
23591;DHT22;11973;52.098;7.582;2022-10-30T13:18:25;19.70;99.90
23591;DHT22;11973;52.098;7.582;2022-10-30T13:21:00;19.70;99.90
23591;DHT22;11973;52.098;7.582;2022-10-30T13:29:04;19.80;99.90
23591;DHT22;11973;52.098;7.582;2022-10-30T13:34:16;19.90;99.90
23591;DHT22;11973;52.098;7.582;2022-10-30T13:39:29;19.90;99.90
23591;DHT22;11973;52.098;7.582;2022-10-30T13:42:06;19.90;99.90
23591;DHT22;11973;52.098;7.582;2022-10-30T13:47:23;19.90;99.90
23591;DHT22;11973;52.098;7.582;2022-10-30T13:52:21;19.90;99.90
23591;DHT22;11973;52.098;7.582;2022-10-30T13:54:52;19.90;99.90
23591;DHT22;11973;52.098;7.582;2022-10-30T13:57:36;19.90;99.90
23591;DHT22;11973;52.098;7.582;2022-10-30T14:08:38;19.90;99.90
23591;DHT22;11973;52.098;7.582;2022-10-30T14:11:06;19.80;99.90
23591;DHT22;11973;52.098;7.582;2022-10-30T14:16:05;19.80;99.90
23591;DHT22;11973;52.098;7.582;2022-10-30T14:39:49;19.70;99.90
23591;DHT22;11973;52.098;7.582;2022-10-30T14:42:46;19.70;99.90
23591;DHT22;11973;52.098;7.582;2022-10-30T14:48:17;19.60;99.90
23591;DHT22;11973;52.098;7.582;2022-10-30T14:50:50;19.60;99.90
23591;DHT22;11973;52.098;7.582;2022-10-30T14:58:40;19.40;99.90
23591;DHT22;11973;52.098;7.582;2022-10-30T15:01:26;19.40;99.90
23591;DHT22;11973;52.098;7.582;2022-10-30T15:10:19;19.30;99.90
23591;DHT22;11973;52.098;7.582;2022-10-30T15:13:04;19.30;99.90
23591;DHT22;11973;52.098;7.582;2022-10-30T15:15:30;19.20;99.90
23591;DHT22;11973;52.098;7.582;2022-10-30T15:18:23;19.20;99.90
23591;DHT22;11973;52.098;7.582;2022-10-30T15:20:53;19.10;99.90
23591;DHT22;11973;52.098;7.582;2022-10-30T15:23:43;19.10;99.90
23591;DHT22;11973;52.098;7.582;2022-10-30T15:26:18;19.00;99.90
23591;DHT22;11973;52.098;7.582;2022-10-30T15:28:50;19.00;99.90
23591;DHT22;11973;52.098;7.582;2022-10-30T15:33:41;18.80;99.90
23591;DHT22;11973;52.098;7.582;2022-10-30T15:36:22;18.80;99.90
23591;DHT22;11973;52.098;7.582;2022-10-30T15:39:05;18.70;99.90
23591;DHT22;11973;52.098;7.582;2022-10-30T15:41:35;18.60;99.90
23591;DHT22;11973;52.098;7.582;2022-10-30T15:44:02;18.50;99.90
23591;DHT22;11973;52.098;7.582;2022-10-30T15:46:29;18.40;99.90
23591;DHT22;11973;52.098;7.582;2022-10-30T15:48:55;18.30;99.90
23591;DHT22;11973;52.098;7.582;2022-10-30T15:51:22;18.20;99.90
23591;DHT22;11973;52.098;7.582;2022-10-30T15:53:49;18.20;99.90
23591;DHT22;11973;52.098;7.582;2022-10-30T15:58:49;18.00;99.90
23591;DHT22;11973;52.098;7.582;2022-10-30T16:01:29;17.90;99.90
23591;DHT22;11973;52.098;7.582;2022-10-30T16:03:55;17.80;99.90
23591;DHT22;11973;52.098;7.582;2022-10-30T16:06:27;17.60;99.90
23591;DHT22;11973;52.098;7.582;2022-10-30T16:08:54;17.50;99.90
23591;DHT22;11973;52.098;7.582;2022-10-30T16:11:20;17.50;99.90
23591;DHT22;11973;52.098;7.582;2022-10-30T16:13:47;17.30;99.90
23591;DHT22;11973;52.098;7.582;2022-10-30T16:16:23;17.20;99.90
23591;DHT22;11973;52.098;7.582;2022-10-30T16:18:50;17.10;99.90
23591;DHT22;11973;52.098;7.582;2022-10-30T16:21:21;17.00;99.90
23591;DHT22;11973;52.098;7.582;2022-10-30T16:23:50;16.90;99.90
23591;DHT22;11973;52.098;7.582;2022-10-30T16:26:34;16.80;99.90
23591;DHT22;11973;52.098;7.582;2022-10-30T16:29:23;16.70;99.90
23591;DHT22;11973;52.098;7.582;2022-10-30T16:31:51;16.60;99.90
23591;DHT22;11973;52.098;7.582;2022-10-30T16:34:31;16.50;99.90
23591;DHT22;11973;52.098;7.582;2022-10-30T16:37:01;16.50;99.90
23591;DHT22;11973;52.098;7.582;2022-10-30T16:39:27;16.40;99.90
23591;DHT22;11973;52.098;7.582;2022-10-30T16:41:58;16.30;99.90
23591;DHT22;11973;52.098;7.582;2022-10-30T16:44:29;16.30;99.90
23591;DHT22;11973;52.098;7.582;2022-10-30T16:47:37;16.20;99.90
23591;DHT22;11973;52.098;7.582;2022-10-30T16:49:52;16.20;99.90
23591;DHT22;11973;52.098;7.582;2022-10-30T16:52:22;16.10;99.90
23591;DHT22;11973;52.098;7.582;2022-10-30T16:55:03;16.00;99.90
23591;DHT22;11973;52.098;7.582;2022-10-30T16:57:32;16.00;99.90
23591;DHT22;11973;52.098;7.582;2022-10-30T17:00:00;15.90;99.90
23591;DHT22;11973;52.098;7.582;2022-10-30T17:02:36;15.90;99.90
23591;DHT22;11973;52.098;7.582;2022-10-30T17:07:36;15.70;99.90
23591;DHT22;11973;52.098;7.582;2022-10-30T17:10:02;15.70;99.90
23591;DHT22;11973;52.098;7.582;2022-10-30T17:12:48;15.60;99.90
23591;DHT22;11973;52.098;7.582;2022-10-30T17:15:14;15.60;99.90
23591;DHT22;11973;52.098;7.582;2022-10-30T17:18:09;15.50;99.90
23591;DHT22;11973;52.098;7.582;2022-10-30T17:20:35;15.50;99.90
23591;DHT22;11973;52.098;7.582;2022-10-30T17:23:15;15.40;99.90
23591;DHT22;11973;52.098;7.582;2022-10-30T17:25:42;15.40;99.90
23591;DHT22;11973;52.098;7.582;2022-10-30T17:28:25;15.30;99.90
23591;DHT22;11973;52.098;7.582;2022-10-30T17:30:53;15.30;99.90
23591;DHT22;11973;52.098;7.582;2022-10-30T17:33:35;15.20;99.90
23591;DHT22;11973;52.098;7.582;2022-10-30T17:36:05;15.20;99.90
23591;DHT22;11973;52.098;7.582;2022-10-30T17:38:31;15.10;99.90
23591;DHT22;11973;52.098;7.582;2022-10-30T17:40:57;15.10;99.90
23591;DHT22;11973;52.098;7.582;2022-10-30T17:43:46;15.10;99.90
23591;DHT22;11973;52.098;7.582;2022-10-30T17:46:13;15.00;99.90
23591;DHT22;11973;52.098;7.582;2022-10-30T17:48:38;14.90;99.90
23591;DHT22;11973;52.098;7.582;2022-10-30T17:51:07;14.90;99.90
23591;DHT22;11973;52.098;7.582;2022-10-30T17:53:33;14.80;99.90
23591;DHT22;11973;52.098;7.582;2022-10-30T17:56:09;14.80;99.90
23591;DHT22;11973;52.098;7.582;2022-10-30T17:58:36;14.80;99.90
23591;DHT22;11973;52.098;7.582;2022-10-30T18:01:01;14.70;99.90
23591;DHT22;11973;52.098;7.582;2022-10-30T18:03:27;14.60;99.90
23591;DHT22;11973;52.098;7.582;2022-10-30T18:05:53;14.60;99.90
23591;DHT22;11973;52.098;7.582;2022-10-30T18:08:19;14.50;99.90
23591;DHT22;11973;52.098;7.582;2022-10-30T18:10:45;14.50;99.90
23591;DHT22;11973;52.098;7.582;2022-10-30T18:13:12;14.50;99.90
23591;DHT22;11973;52.098;7.582;2022-10-30T18:15:41;14.40;99.90
23591;DHT22;11973;52.098;7.582;2022-10-30T18:18:08;14.40;99.90
23591;DHT22;11973;52.098;7.582;2022-10-30T18:20:34;14.40;99.90
23591;DHT22;11973;52.098;7.582;2022-10-30T18:23:00;14.40;99.90
23591;DHT22;11973;52.098;7.582;2022-10-30T18:25:30;14.30;99.90
23591;DHT22;11973;52.098;7.582;2022-10-30T18:27:56;14.30;99.90
23591;DHT22;11973;52.098;7.582;2022-10-30T18:30:22;14.30;99.90
23591;DHT22;11973;52.098;7.582;2022-10-30T18:32:48;14.30;99.90
23591;DHT22;11973;52.098;7.582;2022-10-30T18:35:23;14.20;99.90
23591;DHT22;11973;52.098;7.582;2022-10-30T18:37:50;14.20;99.90
23591;DHT22;11973;52.098;7.582;2022-10-30T18:40:16;14.20;99.90
23591;DHT22;11973;52.098;7.582;2022-10-30T18:42:41;14.20;99.90
23591;DHT22;11973;52.098;7.582;2022-10-30T18:45:17;14.20;99.90
23591;DHT22;11973;52.098;7.582;2022-10-30T18:47:44;14.20;99.90
23591;DHT22;11973;52.098;7.582;2022-10-30T18:50:10;14.10;99.90
23591;DHT22;11973;52.098;7.582;2022-10-30T18:52:36;14.20;99.90
23591;DHT22;11973;52.098;7.582;2022-10-30T18:55:21;14.10;99.90
23591;DHT22;11973;52.098;7.582;2022-10-30T18:57:50;14.20;99.90
23591;DHT22;11973;52.098;7.582;2022-10-30T19:00:18;14.10;99.90
23591;DHT22;11973;52.098;7.582;2022-10-30T19:02:45;14.10;99.90
23591;DHT22;11973;52.098;7.582;2022-10-30T19:07:45;14.10;99.90
23591;DHT22;11973;52.098;7.582;2022-10-30T19:10:11;14.10;99.90
23591;DHT22;11973;52.098;7.582;2022-10-30T19:12:37;14.10;99.90
23591;DHT22;11973;52.098;7.582;2022-10-30T19:15:18;14.10;99.90
23591;DHT22;11973;52.098;7.582;2022-10-30T19:17:44;14.10;99.90
23591;DHT22;11973;52.098;7.582;2022-10-30T19:20:11;14.10;99.90
23591;DHT22;11973;52.098;7.582;2022-10-30T19:22:37;14.10;99.90
23591;DHT22;11973;52.098;7.582;2022-10-30T19:25:33;14.00;99.90
23591;DHT22;11973;52.098;7.582;2022-10-30T19:27:59;14.00;99.90
23591;DHT22;11973;52.098;7.582;2022-10-30T19:30:25;14.00;99.90
23591;DHT22;11973;52.098;7.582;2022-10-30T19:32:51;14.00;99.90
23591;DHT22;11973;52.098;7.582;2022-10-30T19:35:19;14.00;99.90
23591;DHT22;11973;52.098;7.582;2022-10-30T19:37:54;14.00;99.90
23591;DHT22;11973;52.098;7.582;2022-10-30T19:40:26;14.00;99.90
23591;DHT22;11973;52.098;7.582;2022-10-30T19:42:53;13.90;99.90